Time;durP1;ratioP1;P1;durP2;ratioP2;P2;SDS_P1;SDS_P2;PMS_P1;PMS_P2;Temp;Humidity;BMP_temperature;BMP_pressure;BME280_temperature;BME280_humidity;BME280_pressure;Samples;Min_cycle;Max_cycle;Signal;HPM_P1;HPM_P2
2022/06/08 00:00:49;;;;;;;0.90;0.90;;;16.50;99.90;;;;;;5001627;28;20170;-93
2022/06/08 00:03:23;;;;;;;1.00;1.00;;;16.50;99.90;;;;;;4983625;28;20632;-93
2022/06/08 00:05:49;;;;;;;0.80;0.80;;;16.50;99.90;;;;;;4981181;28;20671;-94
2022/06/08 00:08:15;;;;;;;1.00;1.00;;;16.50;99.90;;;;;;4997525;28;20166;-93
2022/06/08 00:10:41;;;;;;;1.00;1.00;;;16.50;99.90;;;;;;4979388;28;20233;-94
2022/06/08 00:13:07;;;;;;;0.93;0.93;;;16.50;99.90;;;;;;4997303;28;20203;-94
2022/06/08 00:15:33;;;;;;;0.90;0.90;;;16.60;99.90;;;;;;4980635;28;20175;-94
2022/06/08 00:18:00;;;;;;;1.97;1.10;;;16.60;99.90;;;;;;5010131;28;20269;-87
2022/06/08 00:20:26;;;;;;;0.90;0.90;;;16.60;99.90;;;;;;4996178;28;20174;-94
2022/06/08 00:22:53;;;;;;;0.93;0.93;;;16.60;99.90;;;;;;4999934;28;20171;-94
2022/06/08 00:25:19;;;;;;;0.83;0.83;;;16.60;99.90;;;;;;5000178;28;20182;-95
2022/06/08 00:27:45;;;;;;;2.33;1.00;;;16.60;99.90;;;;;;5000989;28;20190;-94
2022/06/08 00:30:11;;;;;;;1.10;1.10;;;16.60;99.90;;;;;;5011286;28;20172;-91
2022/06/08 00:32:37;;;;;;;1.00;1.00;;;16.60;99.90;;;;;;5021133;28;20205;-90
2022/06/08 00:35:04;;;;;;;0.80;0.80;;;16.60;99.90;;;;;;4993604;28;20182;-93
2022/06/08 00:37:30;;;;;;;0.87;0.87;;;16.60;99.90;;;;;;4997498;28;20169;-93
2022/06/08 00:39:56;;;;;;;1.07;1.07;;;16.60;99.90;;;;;;4997058;28;20268;-94
2022/06/08 00:42:22;;;;;;;1.00;1.00;;;16.60;99.90;;;;;;4997161;28;20503;-92
2022/06/08 00:44:50;;;;;;;1.30;1.00;;;16.60;99.90;;;;;;4980343;28;20182;-94
2022/06/08 00:47:19;;;;;;;1.87;1.13;;;16.60;99.90;;;;;;4996404;28;20177;-85
2022/06/08 00:49:51;;;;;;;2.23;0.90;;;16.70;99.90;;;;;;4997191;28;20172;-84
2022/06/08 00:52:17;;;;;;;1.10;0.80;;;16.60;99.90;;;;;;4997343;28;20661;-88
2022/06/08 00:54:48;;;;;;;1.13;1.10;;;16.70;99.90;;;;;;4996392;28;20176;-86
2022/06/08 00:57:28;;;;;;;0.70;0.70;;;16.70;99.90;;;;;;4995427;28;20168;-89
2022/06/08 01:00:34;;;;;;;0.90;0.90;;;16.70;99.90;;;;;;4995700;28;20165;-86
2022/06/08 01:03:01;;;;;;;1.20;1.10;;;16.70;99.90;;;;;;4981377;28;20169;-85
2022/06/08 01:05:28;;;;;;;1.30;1.20;;;16.70;99.90;;;;;;4996694;28;20181;-83
2022/06/08 01:07:58;;;;;;;1.90;1.30;;;16.70;99.90;;;;;;4994528;28;20269;-83
2022/06/08 01:10:44;;;;;;;1.20;1.10;;;16.70;99.90;;;;;;5008836;28;20245;-84
2022/06/08 01:13:10;;;;;;;0.90;0.90;;;16.70;99.90;;;;;;5017915;28;20215;-88
2022/06/08 01:15:40;;;;;;;1.07;1.07;;;16.70;99.90;;;;;;5017121;28;20250;-92
2022/06/08 01:18:07;;;;;;;1.40;1.30;;;16.80;99.90;;;;;;5004130;28;20300;-93
2022/06/08 01:20:34;;;;;;;1.47;1.20;;;16.80;99.90;;;;;;5000223;28;20179;-93
2022/06/08 01:23:00;;;;;;;1.53;1.00;;;16.80;99.90;;;;;;4996318;28;20185;-92
2022/06/08 01:25:37;;;;;;;1.33;1.27;;;16.80;99.90;;;;;;4995863;28;20189;-92
2022/06/08 01:28:35;;;;;;;1.90;1.10;;;16.80;99.90;;;;;;4995973;28;20186;-93
2022/06/08 01:31:07;;;;;;;1.33;1.10;;;16.80;99.90;;;;;;4996008;28;20162;-92
2022/06/08 01:34:08;;;;;;;2.10;1.30;;;16.80;99.90;;;;;;4996282;28;20731;-92
2022/06/08 01:36:48;;;;;;;1.03;1.03;;;16.80;99.90;;;;;;5011657;28;20179;-90
2022/06/08 01:39:27;;;;;;;1.27;1.27;;;16.90;99.90;;;;;;4994070;28;20174;-93
2022/06/08 01:42:07;;;;;;;4.20;1.27;;;16.90;99.90;;;;;;4998090;28;20703;-91
2022/06/08 01:45:28;;;;;;;1.70;1.30;;;16.90;99.90;;;;;;4996041;28;20154;-93
2022/06/08 01:48:04;;;;;;;1.30;1.27;;;16.90;99.90;;;;;;4995141;28;20186;-93
2022/06/08 01:50:42;;;;;;;1.53;1.43;;;16.90;99.90;;;;;;4995804;28;20169;-93
2022/06/08 01:53:20;;;;;;;2.50;1.40;;;16.90;99.90;;;;;;4978450;28;20201;-93
2022/06/08 01:55:53;;;;;;;1.20;1.20;;;16.90;99.90;;;;;;4995522;28;20176;-94
2022/06/08 01:58:42;;;;;;;1.53;1.53;;;16.80;99.90;;;;;;4987471;28;20184;-92
2022/06/08 02:01:21;;;;;;;1.30;1.30;;;16.80;99.90;;;;;;4979827;28;20186;-93
2022/06/08 02:03:58;;;;;;;2.17;1.53;;;16.70;99.90;;;;;;4999684;28;20163;-94
2022/06/08 02:06:33;;;;;;;1.50;1.40;;;16.70;99.90;;;;;;4999676;28;20622;-93
2022/06/08 02:09:11;;;;;;;2.03;1.60;;;16.70;99.90;;;;;;4996003;28;20165;-93
2022/06/08 02:11:44;;;;;;;1.80;1.57;;;16.60;99.90;;;;;;5009453;28;20152;-84
2022/06/08 02:14:17;;;;;;;1.50;1.50;;;16.60;99.90;;;;;;5004783;28;20645;-89
2022/06/08 02:17:10;;;;;;;1.77;1.50;;;16.50;99.90;;;;;;4995141;28;20637;-92
2022/06/08 02:19:42;;;;;;;1.40;1.30;;;16.50;99.90;;;;;;4994751;28;20174;-90
2022/06/08 02:22:25;;;;;;;1.60;1.40;;;16.50;99.90;;;;;;4995146;28;20166;-91
2022/06/08 02:25:26;;;;;;;2.43;1.50;;;16.60;99.90;;;;;;4997692;28;20557;-92
2022/06/08 02:28:09;;;;;;;3.10;1.40;;;16.60;99.90;;;;;;4994720;28;20195;-92
2022/06/08 02:30:56;;;;;;;2.03;1.70;;;16.70;99.90;;;;;;5001015;28;20635;-90
2022/06/08 02:36:27;;;;;;;3.07;1.63;;;16.70;99.90;;;;;;4995113;28;20180;-90
2022/06/08 02:39:03;;;;;;;1.47;1.47;;;16.70;99.90;;;;;;4994284;28;20173;-92
2022/06/08 02:41:31;;;;;;;1.90;1.63;;;16.70;99.90;;;;;;4994457;28;20198;-84
2022/06/08 02:44:01;;;;;;;1.60;1.50;;;16.60;99.90;;;;;;4976147;28;20630;-84
2022/06/08 02:46:48;;;;;;;1.50;1.40;;;16.60;99.90;;;;;;4993298;28;20173;-83
2022/06/08 02:49:14;;;;;;;2.23;1.87;;;16.60;99.90;;;;;;4980638;28;20201;-91
2022/06/08 02:51:48;;;;;;;1.90;1.50;;;16.60;99.90;;;;;;4994878;28;20181;-92
2022/06/08 02:54:26;;;;;;;5.10;1.30;;;16.60;99.90;;;;;;4994533;28;20178;-91
2022/06/08 02:57:06;;;;;;;2.37;1.57;;;16.60;99.90;;;;;;4994946;28;20713;-89
2022/06/08 02:59:35;;;;;;;1.60;1.50;;;16.60;99.90;;;;;;4995087;28;20692;-93
2022/06/08 03:02:19;;;;;;;1.77;1.70;;;16.60;99.90;;;;;;4991076;28;20277;-91
2022/06/08 03:04:48;;;;;;;1.40;1.40;;;16.60;99.90;;;;;;4996828;28;20177;-91
2022/06/08 03:07:23;;;;;;;1.97;1.60;;;16.60;99.90;;;;;;4996530;28;20176;-91
2022/06/08 03:09:51;;;;;;;1.90;1.80;;;16.50;99.90;;;;;;5013786;28;20520;-92
2022/06/08 03:12:32;;;;;;;2.30;1.70;;;16.50;99.90;;;;;;5013918;28;20247;-92
2022/06/08 03:15:00;;;;;;;1.57;1.50;;;16.50;99.90;;;;;;4996567;28;20536;-92
2022/06/08 03:17:31;;;;;;;1.80;1.70;;;16.60;99.90;;;;;;5013319;28;20300;-91
2022/06/08 03:19:58;;;;;;;1.30;1.30;;;16.60;99.90;;;;;;4999322;28;20700;-92
2022/06/08 03:22:24;;;;;;;1.50;1.50;;;16.60;99.90;;;;;;5017043;28;20174;-91
2022/06/08 03:24:49;;;;;;;1.70;1.60;;;16.60;99.90;;;;;;4998679;28;20676;-92
2022/06/08 03:27:15;;;;;;;1.70;1.60;;;16.60;99.90;;;;;;5019317;28;20177;-89
2022/06/08 03:29:41;;;;;;;1.77;1.67;;;16.60;99.90;;;;;;5020885;28;20183;-92
2022/06/08 03:32:07;;;;;;;1.80;1.70;;;16.60;99.90;;;;;;5020660;28;20197;-91
2022/06/08 03:34:34;;;;;;;2.00;1.90;;;16.70;99.90;;;;;;5024835;28;20180;-91
2022/06/08 03:36:59;;;;;;;1.60;1.60;;;16.70;99.90;;;;;;5040578;28;20170;-92
2022/06/08 03:39:25;;;;;;;1.60;1.50;;;16.70;99.90;;;;;;5029366;28;20253;-86
2022/06/08 03:41:51;;;;;;;1.70;1.60;;;16.70;99.90;;;;;;5027661;28;20187;-92
2022/06/08 03:44:17;;;;;;;1.80;1.70;;;16.70;99.90;;;;;;5020053;28;20658;-94
2022/06/08 03:46:56;;;;;;;1.77;1.67;;;16.80;99.90;;;;;;5006146;28;20183;-92
2022/06/08 03:49:27;;;;;;;2.70;1.90;;;16.80;99.90;;;;;;5023019;28;20157;-93
2022/06/08 03:52:00;;;;;;;1.87;1.77;;;16.70;99.90;;;;;;5013607;28;20234;-94
2022/06/08 03:54:31;;;;;;;1.67;1.57;;;16.80;99.90;;;;;;5037512;28;20161;-93
2022/06/08 03:57:00;;;;;;;1.90;1.67;;;16.70;99.90;;;;;;5006992;28;20176;-93
2022/06/08 03:59:27;;;;;;;1.60;1.50;;;16.80;99.90;;;;;;5005570;28;20671;-93
2022/06/08 04:02:00;;;;;;;1.53;1.50;;;16.80;99.90;;;;;;5002201;28;20182;-91
2022/06/08 04:04:35;;;;;;;1.80;1.70;;;16.80;99.90;;;;;;5000512;28;20166;-95
2022/06/08 04:07:01;;;;;;;1.70;1.70;;;16.90;99.90;;;;;;4999318;28;20170;-93
2022/06/08 04:09:29;;;;;;;1.87;1.53;;;16.80;99.90;;;;;;4997720;28;20188;-92
2022/06/08 04:11:55;;;;;;;2.67;1.80;;;16.90;99.90;;;;;;4997832;28;20179;-94
2022/06/08 04:14:21;;;;;;;1.67;1.57;;;16.80;99.90;;;;;;4997833;28;20180;-94
2022/06/08 04:16:48;;;;;;;2.53;1.80;;;16.70;99.90;;;;;;4996808;28;20172;-93
2022/06/08 04:19:14;;;;;;;1.80;1.70;;;16.70;99.90;;;;;;4981599;28;20589;-94
2022/06/08 04:21:41;;;;;;;3.57;1.60;;;16.70;99.90;;;;;;5001707;28;20176;-94
2022/06/08 04:24:11;;;;;;;2.17;1.80;;;16.60;99.90;;;;;;5002710;28;20225;-89
2022/06/08 04:26:38;;;;;;;2.73;1.63;;;16.60;99.90;;;;;;4981373;28;20229;-89
2022/06/08 04:29:05;;;;;;;3.13;1.80;;;16.60;99.90;;;;;;4979684;28;20185;-91
2022/06/08 04:31:34;;;;;;;2.00;1.90;;;16.60;99.90;;;;;;4979546;28;20178;-93
2022/06/08 04:34:06;;;;;;;2.20;1.90;;;16.60;99.90;;;;;;4982122;28;20210;-93
2022/06/08 04:36:33;;;;;;;2.47;1.97;;;16.60;99.90;;;;;;4983568;28;20180;-89
2022/06/08 04:38:59;;;;;;;2.00;1.90;;;16.60;99.90;;;;;;4987601;28;20184;-93
2022/06/08 04:41:26;;;;;;;2.40;2.20;;;16.60;99.90;;;;;;5000780;28;20180;-95
2022/06/08 04:43:52;;;;;;;2.07;1.90;;;16.70;99.90;;;;;;4981493;28;20174;-94
2022/06/08 04:46:19;;;;;;;2.10;2.00;;;16.70;99.90;;;;;;4997147;28;20174;-94
2022/06/08 04:48:49;;;;;;;2.20;2.03;;;16.80;99.90;;;;;;4997119;28;20274;-93
2022/06/08 04:51:19;;;;;;;2.20;2.10;;;16.80;99.90;;;;;;4997838;28;20154;-96
2022/06/08 04:53:47;;;;;;;2.80;2.00;;;16.90;99.90;;;;;;5004079;28;20198;-96
2022/06/08 04:56:13;;;;;;;3.03;2.10;;;16.90;99.90;;;;;;5001514;28;20208;-94
2022/06/08 04:58:43;;;;;;;3.70;2.20;;;17.00;99.90;;;;;;4987994;28;20193;-96
2022/06/08 05:01:12;;;;;;;2.20;2.10;;;17.00;99.90;;;;;;5004951;28;20177;-96
2022/06/08 05:03:38;;;;;;;2.30;2.20;;;17.10;99.90;;;;;;4986910;28;20174;-96
2022/06/08 05:06:04;;;;;;;3.93;2.03;;;17.20;99.90;;;;;;5009853;28;20212;-96
2022/06/08 05:08:36;;;;;;;2.43;2.10;;;17.20;99.90;;;;;;5011845;28;20210;-96
2022/06/08 05:11:05;;;;;;;2.30;2.10;;;17.30;99.90;;;;;;4980890;28;20181;-96
2022/06/08 05:13:36;;;;;;;2.10;2.00;;;17.30;99.90;;;;;;4979090;28;20273;-96
2022/06/08 05:16:04;;;;;;;5.10;1.93;;;17.30;99.90;;;;;;5010710;28;20242;-96
2022/06/08 05:18:31;;;;;;;2.27;2.17;;;17.50;99.90;;;;;;4994853;28;20221;-90
2022/06/08 05:21:06;;;;;;;2.47;1.90;;;17.50;99.90;;;;;;5015723;28;20173;-96
2022/06/08 05:23:49;;;;;;;3.83;2.10;;;17.60;99.90;;;;;;5014890;28;20196;-96
2022/06/08 05:26:15;;;;;;;1.83;1.73;;;17.60;99.90;;;;;;5029797;23;20276;-93
2022/06/08 05:28:44;;;;;;;1.87;1.77;;;17.70;99.90;;;;;;5014766;28;20185;-87
2022/06/08 05:31:12;;;;;;;3.57;1.83;;;17.80;99.90;;;;;;5031367;28;20168;-96
2022/06/08 05:33:38;;;;;;;2.10;2.00;;;17.90;99.90;;;;;;5032237;28;20200;-92
2022/06/08 05:36:06;;;;;;;1.90;1.80;;;18.00;99.90;;;;;;5023042;28;20169;-87
2022/06/08 05:38:35;;;;;;;3.03;1.90;;;18.10;99.90;;;;;;5005744;28;20174;-92
2022/06/08 05:41:02;;;;;;;3.80;1.70;;;18.30;99.90;;;;;;5033275;28;20189;-87
2022/06/08 05:43:28;;;;;;;4.13;1.77;;;18.40;99.90;;;;;;5026858;28;20179;-90
2022/06/08 05:45:55;;;;;;;3.13;1.40;;;18.50;99.90;;;;;;5024351;28;20204;-88
2022/06/08 05:48:41;;;;;;;1.80;1.70;;;18.60;99.90;;;;;;5022037;28;20521;-90
2022/06/08 05:51:08;;;;;;;2.20;1.60;;;18.70;99.90;;;;;;5005745;28;20177;-86
2022/06/08 05:53:45;;;;;;;4.50;2.47;;;18.70;99.90;;;;;;5027045;28;20247;-85
2022/06/08 05:56:12;;;;;;;3.33;2.00;;;18.80;99.90;;;;;;5026133;28;20177;-86
2022/06/08 05:58:39;;;;;;;3.87;2.10;;;18.70;99.90;;;;;;5023769;28;20235;-84
2022/06/08 06:01:04;;;;;;;2.20;1.80;;;18.70;99.90;;;;;;5002689;28;20198;-87
2022/06/08 06:03:30;;;;;;;2.43;2.03;;;18.70;99.90;;;;;;4999882;28;20181;-87
2022/06/08 06:06:09;;;;;;;2.07;1.93;;;18.70;99.90;;;;;;4998867;28;20216;-86
2022/06/08 06:08:34;;;;;;;2.53;2.20;;;18.70;99.90;;;;;;4993441;28;20271;-84
2022/06/08 06:11:09;;;;;;;3.77;2.03;;;18.70;99.90;;;;;;4996759;28;20708;-85
2022/06/08 06:13:36;;;;;;;4.23;1.90;;;18.80;99.90;;;;;;5007537;28;20205;-95
2022/06/08 06:16:03;;;;;;;1.80;1.70;;;18.80;99.90;;;;;;5031672;28;20195;-95
2022/06/08 06:18:30;;;;;;;3.33;1.80;;;18.90;99.90;;;;;;5017696;23;20243;-96
2022/06/08 06:20:56;;;;;;;3.57;1.93;;;19.00;99.90;;;;;;5026037;28;20173;-96
2022/06/08 06:23:22;;;;;;;4.47;2.13;;;19.00;99.90;;;;;;5010182;28;20199;-96
2022/06/08 06:25:48;;;;;;;6.53;2.10;;;19.10;99.90;;;;;;5000208;28;20186;-92
2022/06/08 06:28:47;;;;;;;1.80;1.47;;;19.10;99.90;;;;;;4996474;28;20192;-95
2022/06/08 06:31:37;;;;;;;1.60;1.50;;;19.10;99.90;;;;;;5008248;28;20215;-96
2022/06/08 06:34:04;;;;;;;2.10;1.30;;;19.10;99.90;;;;;;5005483;28;20206;-93
2022/06/08 06:36:29;;;;;;;2.63;1.30;;;19.10;99.90;;;;;;5009609;28;20276;-94
2022/06/08 06:38:55;;;;;;;5.20;1.80;;;19.10;99.90;;;;;;4981056;28;20637;-96
2022/06/08 06:41:21;;;;;;;2.60;1.40;;;19.10;99.90;;;;;;4995457;28;20232;-95
2022/06/08 06:43:48;;;;;;;1.33;1.23;;;19.10;99.90;;;;;;4995941;28;20174;-96
2022/06/08 06:46:15;;;;;;;1.57;1.50;;;19.10;99.90;;;;;;4995779;28;20638;-96
2022/06/08 06:48:42;;;;;;;2.30;1.30;;;19.10;99.90;;;;;;4995585;28;20228;-96
2022/06/08 06:51:07;;;;;;;5.67;1.50;;;19.20;99.90;;;;;;4995400;28;20174;-95
2022/06/08 06:53:34;;;;;;;2.73;1.87;;;19.20;99.90;;;;;;4995616;28;20235;-94
2022/06/08 06:56:00;;;;;;;3.23;1.73;;;19.30;99.90;;;;;;4995947;28;20170;-96
2022/06/08 06:58:26;;;;;;;2.37;1.87;;;19.30;99.90;;;;;;4995387;28;20181;-96
2022/06/08 07:00:53;;;;;;;2.70;1.90;;;19.40;99.90;;;;;;4979198;28;20182;-95
2022/06/08 07:03:20;;;;;;;2.60;1.60;;;19.40;99.90;;;;;;5000382;28;20246;-95
2022/06/08 07:05:46;;;;;;;3.73;1.93;;;19.40;99.90;;;;;;5004867;28;20154;-96
2022/06/08 07:08:12;;;;;;;1.90;1.80;;;19.40;99.90;;;;;;5020764;28;20178;-96
2022/06/08 07:10:38;;;;;;;4.53;1.97;;;19.40;99.90;;;;;;4995096;28;20185;-96
2022/06/08 07:13:05;;;;;;;3.03;1.77;;;19.40;99.90;;;;;;5002040;28;20261;-96
2022/06/08 07:15:30;;;;;;;2.00;1.73;;;19.30;99.90;;;;;;5021055;28;20184;-95
2022/06/08 07:17:57;;;;;;;4.13;2.00;;;19.30;99.90;;;;;;5020781;28;20210;-96
2022/06/08 07:20:23;;;;;;;2.13;1.80;;;19.30;99.90;;;;;;4999818;28;20162;-94
2022/06/08 07:22:50;;;;;;;4.87;2.00;;;19.40;99.90;;;;;;4999510;28;20178;-96
2022/06/08 07:25:18;;;;;;;3.30;1.83;;;19.30;99.90;;;;;;4999539;28;20261;-96
2022/06/08 07:27:45;;;;;;;2.43;2.10;;;19.30;99.90;;;;;;5000419;28;20216;-88
2022/06/08 07:30:12;;;;;;;3.30;2.13;;;19.30;99.90;;;;;;4999853;28;20200;-90
2022/06/08 07:32:41;;;;;;;3.83;2.10;;;19.40;99.90;;;;;;4980823;28;20618;-91
2022/06/08 07:35:08;;;;;;;3.97;2.17;;;19.40;99.90;;;;;;4998221;28;20182;-87
2022/06/08 07:37:34;;;;;;;2.00;1.80;;;19.40;99.90;;;;;;4998339;28;20201;-88
2022/06/08 07:40:00;;;;;;;3.47;2.20;;;19.50;99.90;;;;;;5002101;28;20275;-84
2022/06/08 07:42:26;;;;;;;2.80;1.83;;;19.60;99.90;;;;;;5007051;28;20575;-85
2022/06/08 07:44:52;;;;;;;3.23;2.20;;;19.60;99.90;;;;;;5001558;28;20177;-85
2022/06/08 07:47:17;;;;;;;3.30;2.00;;;19.60;99.90;;;;;;4999207;28;20174;-86
2022/06/08 07:49:49;;;;;;;2.43;2.30;;;19.80;99.90;;;;;;4996819;28;20174;-85
2022/06/08 07:52:20;;;;;;;3.80;2.10;;;19.80;99.90;;;;;;4979521;28;20590;-95
2022/06/08 07:54:47;;;;;;;4.13;2.00;;;19.90;99.90;;;;;;4999294;28;20170;-96
2022/06/08 07:57:17;;;;;;;3.93;1.93;;;19.90;99.90;;;;;;4998618;28;20174;-95
2022/06/08 07:59:43;;;;;;;4.33;2.00;;;19.90;99.90;;;;;;4998709;28;20177;-96
2022/06/08 08:02:10;;;;;;;4.83;2.10;;;19.90;99.90;;;;;;4998490;28;20257;-96
2022/06/08 08:04:37;;;;;;;6.10;2.10;;;19.90;99.90;;;;;;4998387;28;20182;-96
2022/06/08 08:07:04;;;;;;;2.83;2.30;;;20.00;99.90;;;;;;4998967;28;20171;-96
2022/06/08 08:09:33;;;;;;;5.77;2.30;;;20.10;99.90;;;;;;4998688;28;20182;-95
2022/06/08 08:12:00;;;;;;;5.20;2.13;;;20.00;99.90;;;;;;5014516;28;20186;-90
2022/06/08 08:14:26;;;;;;;2.43;1.97;;;20.10;99.90;;;;;;5011915;28;20193;-95
2022/06/08 08:16:53;;;;;;;4.70;2.00;;;20.20;99.90;;;;;;5000052;28;20174;-94
2022/06/08 08:19:23;;;;;;;4.30;1.80;;;20.40;99.90;;;;;;4980556;28;20229;-96
2022/06/08 08:21:49;;;;;;;4.30;2.00;;;20.40;99.90;;;;;;4980538;28;20200;-94
2022/06/08 08:24:16;;;;;;;3.83;2.70;;;20.50;99.90;;;;;;4997718;28;20170;-96
2022/06/08 08:26:48;;;;;;;3.53;2.20;;;20.60;99.90;;;;;;4997839;28;20177;-95
2022/06/08 08:29:15;;;;;;;6.57;2.70;;;20.70;99.90;;;;;;4997917;28;20182;-95
2022/06/08 08:31:41;;;;;;;4.93;2.23;;;20.80;99.90;;;;;;4980347;28;20186;-96
2022/06/08 08:34:08;;;;;;;2.57;1.90;;;20.90;99.90;;;;;;4980172;28;20220;-96
2022/06/08 08:36:34;;;;;;;3.53;2.13;;;21.10;99.90;;;;;;4980002;28;20213;-96
2022/06/08 08:39:00;;;;;;;4.27;2.67;;;21.20;99.90;;;;;;4998191;28;20261;-95
2022/06/08 08:44:29;;;;;;;5.03;1.90;;;21.50;99.90;;;;;;4998886;28;20696;-95
2022/06/08 08:47:21;;;;;;;9.20;2.30;;;21.50;99.90;;;;;;4995929;28;20174;-95
2022/06/08 08:49:56;;;;;;;6.93;2.10;;;21.50;99.90;;;;;;5007800;28;20246;-93
2022/06/08 08:52:42;;;;;;;5.60;2.03;;;21.60;99.90;;;;;;5002205;28;20211;-94
2022/06/08 08:55:19;;;;;;;3.63;2.00;;;21.70;99.90;;;;;;5020475;28;20154;-94
2022/06/08 08:58:10;;;;;;;3.60;2.80;;;21.90;99.90;;;;;;5003113;28;20245;-96
2022/06/08 09:00:42;;;;;;;4.00;2.03;;;21.90;99.90;;;;;;5001059;28;20225;-96
2022/06/08 09:03:30;;;;;;;2.57;1.57;;;22.00;99.90;;;;;;4980182;28;20170;-95
2022/06/08 09:06:01;;;;;;;4.43;2.03;;;22.00;99.90;;;;;;4997223;28;20258;-96
2022/06/08 09:08:28;;;;;;;2.00;1.80;;;22.10;99.90;;;;;;4979728;28;20173;-93
2022/06/08 09:10:58;;;;;;;3.10;1.80;;;22.10;99.90;;;;;;4997208;28;20181;-96
2022/06/08 09:13:45;;;;;;;1.80;1.70;;;22.10;99.90;;;;;;4998966;28;20202;-96
2022/06/08 09:16:35;;;;;;;3.67;1.90;;;22.30;99.90;;;;;;4984331;28;20197;-96
2022/06/08 09:19:25;;;;;;;3.43;2.30;;;22.30;99.90;;;;;;4965990;28;20248;-96
2022/06/08 09:22:07;;;;;;;4.20;2.20;;;22.40;99.90;;;;;;4994983;28;20308;-86
2022/06/08 09:24:46;;;;;;;6.70;2.20;;;22.30;99.90;;;;;;4978147;28;20249;-89
2022/06/08 09:27:23;;;;;;;3.13;1.90;;;22.30;99.90;;;;;;4978283;28;20260;-88
2022/06/08 09:30:19;;;;;;;4.77;2.10;;;22.30;99.90;;;;;;4995495;28;20165;-86
2022/06/08 09:32:51;;;;;;;3.33;2.10;;;22.40;99.90;;;;;;4990600;28;20625;-96
2022/06/08 09:35:32;;;;;;;3.60;2.20;;;22.50;99.90;;;;;;4999596;28;20174;-96
2022/06/08 09:38:06;;;;;;;4.70;2.10;;;22.60;99.90;;;;;;5001538;28;20162;-96
2022/06/08 09:40:41;;;;;;;6.05;1.98;;;22.70;99.90;;;;;;5016826;28;20150;-94
2022/06/08 09:43:12;;;;;;;3.20;2.00;;;22.80;99.90;;;;;;5018235;28;20511;-96
2022/06/08 09:45:53;;;;;;;2.33;2.13;;;22.80;99.90;;;;;;5003220;28;20178;-96
2022/06/08 09:51:43;;;;;;;4.10;1.80;;;22.90;99.90;;;;;;5001044;28;20229;-96
2022/06/08 09:54:17;;;;;;;3.10;2.30;;;22.90;99.90;;;;;;5000174;28;20281;-96
2022/06/08 09:56:52;;;;;;;1.63;1.53;;;22.90;99.90;;;;;;5008410;28;20154;-90
2022/06/08 09:59:55;;;;;;;5.80;2.20;;;22.90;99.90;;;;;;5015583;28;20597;-95
2022/06/08 10:02:33;;;;;;;3.47;3.17;;;22.90;99.90;;;;;;4985287;28;20177;-96
2022/06/08 10:05:35;;;;;;;2.77;2.43;;;23.00;99.90;;;;;;4983933;28;20182;-94
2022/06/08 10:08:44;;;;;;;3.87;2.50;;;23.10;99.90;;;;;;4980545;28;20522;-96
2022/06/08 10:11:34;;;;;;;4.67;2.37;;;23.20;99.90;;;;;;5009139;28;20181;-96
2022/06/08 10:14:21;;;;;;;6.53;2.37;;;23.30;99.90;;;;;;4987134;28;20237;-96
2022/06/08 10:16:54;;;;;;;1.70;1.43;;;23.20;99.90;;;;;;4994923;28;20190;-94
2022/06/08 10:19:31;;;;;;;2.77;2.10;;;23.30;99.90;;;;;;4999781;28;20317;-96
2022/06/08 10:22:01;;;;;;;2.05;1.80;;;23.30;99.90;;;;;;5001394;28;20173;-96
2022/06/08 10:24:40;;;;;;;4.07;1.67;;;23.30;99.90;;;;;;4984792;28;20174;-96
2022/06/08 10:27:39;;;;;;;2.85;1.90;;;23.40;99.90;;;;;;4994802;28;20153;-87
2022/06/08 10:30:20;;;;;;;2.15;1.92;;;23.40;99.90;;;;;;5010977;28;20190;-95
2022/06/08 10:32:54;;;;;;;3.92;1.80;;;23.50;99.90;;;;;;5017633;28;20182;-95
2022/06/08 10:35:29;;;;;;;2.40;1.50;;;23.60;99.90;;;;;;5018585;28;20170;-93
2022/06/08 10:37:55;;;;;;;2.40;1.58;;;23.60;99.90;;;;;;4999983;28;20220;-96
2022/06/08 10:40:27;;;;;;;1.90;1.80;;;23.60;99.90;;;;;;4992429;28;20178;-95
2022/06/08 10:42:54;;;;;;;3.83;1.70;;;23.60;99.90;;;;;;4990833;28;20201;-96
2022/06/08 10:45:28;;;;;;;2.73;1.67;;;23.50;99.90;;;;;;4999837;28;20664;-96
2022/06/08 10:47:57;;;;;;;1.60;1.50;;;23.40;99.90;;;;;;4999152;28;20173;-93
2022/06/08 10:50:42;;;;;;;2.60;1.73;;;23.30;99.90;;;;;;4998417;28;20165;-94
2022/06/08 10:56:34;;;;;;;2.60;1.50;;;23.20;99.90;;;;;;5003603;28;20186;-96
2022/06/08 10:59:08;;;;;;;1.70;1.60;;;23.30;99.90;;;;;;4966323;28;20213;-95
2022/06/08 11:01:49;;;;;;;3.22;1.77;;;23.40;99.90;;;;;;5005175;28;20178;-95
2022/06/08 11:04:30;;;;;;;2.53;1.60;;;23.50;99.90;;;;;;5002729;28;20170;-95
2022/06/08 11:07:13;;;;;;;1.75;1.65;;;23.50;99.90;;;;;;5003287;28;20170;-91
2022/06/08 11:09:48;;;;;;;4.03;1.80;;;23.50;99.90;;;;;;4985072;28;20177;-95
2022/06/08 11:12:17;;;;;;;3.75;1.70;;;23.50;99.90;;;;;;5000977;28;20217;-94
2022/06/08 11:14:51;;;;;;;3.10;1.75;;;23.40;99.90;;;;;;5001062;28;20181;-96
2022/06/08 11:17:48;;;;;;;3.25;1.63;;;23.40;99.90;;;;;;5004785;28;20181;-96
2022/06/08 11:20:47;;;;;;;3.42;1.85;;;23.40;99.90;;;;;;4999937;28;20476;-96
2022/06/08 11:23:41;;;;;;;5.68;1.80;;;23.50;99.90;;;;;;4983838;28;20249;-96
2022/06/08 11:26:23;;;;;;;3.90;2.13;;;23.70;99.90;;;;;;5005012;28;20698;-96
2022/06/08 11:29:22;;;;;;;3.42;1.70;;;23.80;99.90;;;;;;5007371;28;20154;-91
2022/06/08 11:31:51;;;;;;;1.70;1.60;;;23.90;99.90;;;;;;5002678;28;20177;-90
2022/06/08 11:35:12;;;;;;;3.22;1.40;;;24.10;99.90;;;;;;4989003;28;20210;-91
2022/06/08 11:37:52;;;;;;;1.98;1.58;;;24.20;99.90;;;;;;4913029;29;20181;-96
2022/06/08 11:40:27;;;;;;;5.35;1.70;;;24.40;99.90;;;;;;5007131;28;20213;-88
2022/06/08 11:43:36;;;;;;;1.98;1.60;;;24.50;99.90;;;;;;5001134;28;20165;-89
2022/06/08 11:46:04;;;;;;;3.38;1.75;;;24.60;99.80;;;;;;4917524;29;20213;-90
2022/06/08 11:48:47;;;;;;;2.28;1.60;;;24.70;98.90;;;;;;4915036;29;20269;-96
2022/06/08 11:51:41;;;;;;;2.67;1.70;;;24.80;99.20;;;;;;4898300;29;20241;-96
2022/06/08 11:54:31;;;;;;;1.67;1.58;;;25.00;99.90;;;;;;4911325;29;20249;-96
2022/06/08 11:57:12;;;;;;;2.70;1.65;;;25.20;99.20;;;;;;4898911;29;20182;-96
2022/06/08 11:59:41;;;;;;;3.50;1.80;;;25.20;98.00;;;;;;4906687;29;20200;-94
2022/06/08 12:02:22;;;;;;;1.65;1.55;;;25.30;98.00;;;;;;4921344;29;20218;-96
2022/06/08 12:04:57;;;;;;;2.58;1.40;;;25.30;97.30;;;;;;4907538;29;20260;-95
2022/06/08 12:07:56;;;;;;;1.75;1.65;;;25.30;96.60;;;;;;4912667;29;20193;-88
2022/06/08 12:10:27;;;;;;;2.97;1.52;;;25.30;96.80;;;;;;4917368;29;20256;-96
2022/06/08 12:12:54;;;;;;;4.47;1.77;;;25.30;96.10;;;;;;4903043;29;20220;-92
2022/06/08 12:15:34;;;;;;;1.42;1.42;;;25.10;95.10;;;;;;4923872;29;20181;-96
2022/06/08 12:18:39;;;;;;;2.40;1.60;;;25.00;94.90;;;;;;4915270;29;20745;-96
2022/06/08 12:21:19;;;;;;;5.68;1.50;;;25.00;95.50;;;;;;5004474;28;20192;-96
2022/06/08 12:24:06;;;;;;;1.70;1.60;;;25.10;95.30;;;;;;4984472;28;20170;-96
2022/06/08 12:26:50;;;;;;;2.85;1.63;;;25.20;94.70;;;;;;5002564;28;20522;-96
2022/06/08 12:29:25;;;;;;;1.65;1.58;;;25.20;95.60;;;;;;5002446;28;20232;-92
2022/06/08 12:32:06;;;;;;;3.17;1.88;;;25.10;94.50;;;;;;4999349;28;20253;-90
2022/06/08 12:34:45;;;;;;;3.38;1.67;;;24.90;94.20;;;;;;4997276;28;20240;-88
2022/06/08 12:37:54;;;;;;;1.50;1.40;;;24.90;94.30;;;;;;4980628;28;20673;-86
2022/06/08 12:40:29;;;;;;;3.67;2.17;;;24.60;93.90;;;;;;4980088;28;20174;-88
2022/06/08 12:42:58;;;;;;;2.80;1.70;;;24.50;94.90;;;;;;4997654;28;20181;-87
2022/06/08 12:45:33;;;;;;;3.58;2.53;;;24.50;95.70;;;;;;4996187;28;20376;-86
2022/06/08 12:48:19;;;;;;;1.85;1.55;;;24.40;95.30;;;;;;4978558;28;20204;-85
2022/06/08 12:50:46;;;;;;;1.75;1.65;;;24.20;95.00;;;;;;4982857;28;20181;-95
2022/06/08 12:53:16;;;;;;;2.00;1.85;;;24.00;94.60;;;;;;4998322;28;20240;-96
2022/06/08 12:55:41;;;;;;;1.80;1.67;;;23.90;95.10;;;;;;4985952;28;20205;-96
2022/06/08 12:58:08;;;;;;;1.80;1.70;;;23.70;94.90;;;;;;5004090;28;20178;-96
2022/06/08 13:00:36;;;;;;;3.05;1.60;;;23.50;95.20;;;;;;4979775;28;20174;-96
2022/06/08 13:03:19;;;;;;;2.33;1.77;;;23.50;95.60;;;;;;4998534;28;20174;-94
2022/06/08 13:05:45;;;;;;;3.15;2.10;;;23.60;95.90;;;;;;5000156;28;20177;-96
2022/06/08 13:08:19;;;;;;;2.47;1.67;;;23.50;95.20;;;;;;5003043;28;20664;-95
2022/06/08 13:10:46;;;;;;;1.65;1.55;;;23.50;95.30;;;;;;5004048;28;20158;-96
2022/06/08 13:13:22;;;;;;;4.20;1.70;;;23.40;95.40;;;;;;5002669;28;20217;-95
2022/06/08 13:15:49;;;;;;;1.70;1.60;;;23.20;95.60;;;;;;4988848;28;20166;-95
2022/06/08 13:18:18;;;;;;;4.43;1.90;;;23.20;96.20;;;;;;5002929;28;20221;-96
2022/06/08 13:20:46;;;;;;;4.78;2.00;;;23.30;96.10;;;;;;5004593;28;20177;-94
2022/06/08 13:23:14;;;;;;;2.00;1.80;;;23.30;96.00;;;;;;5001569;28;20606;-96
2022/06/08 13:25:42;;;;;;;2.08;1.88;;;23.30;95.90;;;;;;4988357;28;20178;-95
2022/06/08 13:28:17;;;;;;;2.30;1.88;;;23.30;95.90;;;;;;4974000;28;20170;-86
2022/06/08 13:30:46;;;;;;;1.63;1.52;;;23.30;95.90;;;;;;4997391;28;20193;-96
2022/06/08 13:33:56;;;;;;;3.63;1.80;;;23.30;96.20;;;;;;5011795;28;20204;-92